sensor_id;sensor_type;location;lat;lon;timestamp;pressure;altitude;pressure_sealevel;temperature;humidity
60061;BME280;45933;51.336;12.612;2023-03-18T00:01:44;99369.03;;;11.26;38.93
60061;BME280;45933;51.336;12.612;2023-03-18T00:04:09;99374.25;;;11.26;38.51
60061;BME280;45933;51.336;12.612;2023-03-18T00:06:35;99375.19;;;11.23;38.44
60061;BME280;45933;51.336;12.612;2023-03-18T00:09:02;99372.59;;;11.23;38.81
60061;BME280;45933;51.336;12.612;2023-03-18T00:11:28;99382.13;;;11.23;38.45
60061;BME280;45933;51.336;12.612;2023-03-18T00:13:54;99376.91;;;11.24;38.38
60061;BME280;45933;51.336;12.612;2023-03-18T00:16:20;99376.16;;;11.19;38.96
60061;BME280;45933;51.336;12.612;2023-03-18T00:18:45;99383.09;;;11.19;39.05
60061;BME280;45933;51.336;12.612;2023-03-18T00:21:11;99377.91;;;11.19;38.73
60061;BME280;45933;51.336;12.612;2023-03-18T00:23:36;99387.47;;;11.18;38.50
60061;BME280;45933;51.336;12.612;2023-03-18T00:26:03;99383.09;;;11.19;38.47
60061;BME280;45933;51.336;12.612;2023-03-18T00:28:29;99381.41;;;11.16;38.82
60061;BME280;45933;51.336;12.612;2023-03-18T00:31:01;99370.94;;;11.19;38.52
60061;BME280;45933;51.336;12.612;2023-03-18T00:33:27;99381.41;;;11.16;38.68
60061;BME280;45933;51.336;12.612;2023-03-18T00:35:52;99367.47;;;11.17;38.78
60061;BME280;45933;51.336;12.612;2023-03-18T00:38:18;99362.28;;;11.16;38.52
60061;BME280;45933;51.336;12.612;2023-03-18T00:40:47;99359.72;;;11.14;38.75
60061;BME280;45933;51.336;12.612;2023-03-18T00:43:26;99376.22;;;11.15;38.98
60061;BME280;45933;51.336;12.612;2023-03-18T00:45:55;99362.31;;;11.14;38.88
60061;BME280;45933;51.336;12.612;2023-03-18T00:48:21;99373.69;;;11.10;38.90
60061;BME280;45933;51.336;12.612;2023-03-18T00:50:48;99376.34;;;11.07;39.24
60061;BME280;45933;51.336;12.612;2023-03-18T00:53:14;99376.44;;;11.04;38.93
60061;BME280;45933;51.336;12.612;2023-03-18T00:55:40;99377.31;;;11.03;39.46
60061;BME280;45933;51.336;12.612;2023-03-18T00:58:06;99378.25;;;10.99;39.36
60061;BME280;45933;51.336;12.612;2023-03-18T01:00:33;99381.72;;;10.99;39.02
60061;BME280;45933;51.336;12.612;2023-03-18T01:02:59;99375.81;;;10.90;39.49
60061;BME280;45933;51.336;12.612;2023-03-18T01:05:25;99373.97;;;10.95;39.06
60061;BME280;45933;51.336;12.612;2023-03-18T01:07:51;99374.03;;;10.93;39.40
60061;BME280;45933;51.336;12.612;2023-03-18T01:10:17;99376.66;;;10.90;39.65
60061;BME280;45933;51.336;12.612;2023-03-18T01:12:44;99374.16;;;10.86;39.39
60061;BME280;45933;51.336;12.612;2023-03-18T01:15:15;99383.63;;;10.90;39.37
60061;BME280;45933;51.336;12.612;2023-03-18T01:17:41;99375.09;;;10.82;39.63
60061;BME280;45933;51.336;12.612;2023-03-18T01:20:09;99382.03;;;10.83;39.49
60061;BME280;45933;51.336;12.612;2023-03-18T01:22:36;99373.47;;;10.74;39.86
60061;BME280;45933;51.336;12.612;2023-03-18T01:25:01;99372.63;;;10.74;39.89
60061;BME280;45933;51.336;12.612;2023-03-18T01:27:27;99367.56;;;10.66;40.17
60061;BME280;45933;51.336;12.612;2023-03-18T01:29:52;99377.00;;;10.72;40.04
60061;BME280;45933;51.336;12.612;2023-03-18T01:32:18;99369.28;;;10.67;40.49
60061;BME280;45933;51.336;12.612;2023-03-18T01:34:44;99372.69;;;10.71;39.80
60061;BME280;45933;51.336;12.612;2023-03-18T01:37:09;99376.22;;;10.67;40.13
60061;BME280;45933;51.336;12.612;2023-03-18T01:39:35;99378.88;;;10.65;40.39
60061;BME280;45933;51.336;12.612;2023-03-18T01:42:01;99382.41;;;10.61;40.30
60061;BME280;45933;51.336;12.612;2023-03-18T01:44:27;99378.03;;;10.63;40.41
60061;BME280;45933;51.336;12.612;2023-03-18T01:46:53;99383.25;;;10.62;40.08
60061;BME280;45933;51.336;12.612;2023-03-18T01:49:31;99373.66;;;10.64;39.82
60061;BME280;45933;51.336;12.612;2023-03-18T01:52:01;99374.59;;;10.60;40.26
60061;BME280;45933;51.336;12.612;2023-03-18T01:54:32;99373.81;;;10.56;40.09
60061;BME280;45933;51.336;12.612;2023-03-18T01:56:59;99385.13;;;10.54;40.59
60061;BME280;45933;51.336;12.612;2023-03-18T01:59:27;99382.59;;;10.49;40.76
60061;BME280;45933;51.336;12.612;2023-03-18T02:02:05;99387.75;;;10.52;40.42
60061;BME280;45933;51.336;12.612;2023-03-18T02:04:39;99383.53;;;10.46;40.76
60061;BME280;45933;51.336;12.612;2023-03-18T02:07:16;99378.31;;;10.46;41.03
60061;BME280;45933;51.336;12.612;2023-03-18T02:09:42;99378.44;;;10.37;41.11
60061;BME280;45933;51.336;12.612;2023-03-18T02:12:07;99381.06;;;10.39;41.16
60061;BME280;45933;51.336;12.612;2023-03-18T02:14:33;99384.56;;;10.36;41.49
60061;BME280;45933;51.336;12.612;2023-03-18T02:17:02;99378.41;;;10.40;40.79
60061;BME280;45933;51.336;12.612;2023-03-18T02:19:48;99385.34;;;10.41;40.65
60061;BME280;45933;51.336;12.612;2023-03-18T02:22:32;99375.81;;;10.40;40.09
60061;BME280;45933;51.336;12.612;2023-03-18T02:25:24;99377.56;;;10.38;40.16
60061;BME280;45933;51.336;12.612;2023-03-18T02:27:56;99382.06;;;10.29;41.28
60061;BME280;45933;51.336;12.612;2023-03-18T02:30:27;99385.59;;;10.21;41.31
60061;BME280;45933;51.336;12.612;2023-03-18T02:32:56;99386.53;;;10.17;41.85
60061;BME280;45933;51.336;12.612;2023-03-18T02:35:23;99376.16;;;10.16;41.23
60061;BME280;45933;51.336;12.612;2023-03-18T02:37:49;99383.16;;;10.12;41.30
60061;BME280;45933;51.336;12.612;2023-03-18T02:40:23;99380.47;;;10.17;41.16
60061;BME280;45933;51.336;12.612;2023-03-18T02:42:50;99389.25;;;10.10;41.80
60061;BME280;45933;51.336;12.612;2023-03-18T02:48:10;99391.84;;;10.13;41.71
60061;BME280;45933;51.336;12.612;2023-03-18T02:50:38;99388.41;;;10.09;41.76
60061;BME280;45933;51.336;12.612;2023-03-18T02:53:04;99397.03;;;10.11;41.59
60061;BME280;45933;51.336;12.612;2023-03-18T02:55:29;99401.44;;;10.09;41.58
60061;BME280;45933;51.336;12.612;2023-03-18T02:57:54;99403.03;;;10.16;41.48
60061;BME280;45933;51.336;12.612;2023-03-18T03:00:20;99398.81;;;10.09;41.60
60061;BME280;45933;51.336;12.612;2023-03-18T03:02:45;99404.84;;;10.11;41.83
60061;BME280;45933;51.336;12.612;2023-03-18T03:05:11;99400.50;;;10.12;41.55
60061;BME280;45933;51.336;12.612;2023-03-18T03:07:36;99402.28;;;10.10;41.28
60061;BME280;45933;51.336;12.612;2023-03-18T03:10:04;99408.44;;;10.04;42.23
60061;BME280;45933;51.336;12.612;2023-03-18T03:12:29;99408.34;;;10.10;41.92
60061;BME280;45933;51.336;12.612;2023-03-18T03:14:55;99403.19;;;10.06;42.14
60061;BME280;45933;51.336;12.612;2023-03-18T03:17:21;99405.75;;;10.10;41.35
60061;BME280;45933;51.336;12.612;2023-03-18T03:19:46;99404.91;;;10.07;41.71
60061;BME280;45933;51.336;12.612;2023-03-18T03:22:12;99411.94;;;10.02;41.75
60061;BME280;45933;51.336;12.612;2023-03-18T03:24:37;99415.47;;;9.99;41.67
60061;BME280;45933;51.336;12.612;2023-03-18T03:27:03;99423.31;;;9.94;42.44
60061;BME280;45933;51.336;12.612;2023-03-18T03:29:29;99425.97;;;9.90;42.36
60061;BME280;45933;51.336;12.612;2023-03-18T03:31:54;99427.75;;;9.88;42.54
60061;BME280;45933;51.336;12.612;2023-03-18T03:34:19;99420.97;;;9.75;42.90
60061;BME280;45933;51.336;12.612;2023-03-18T03:36:45;99427.81;;;9.83;42.35
60061;BME280;45933;51.336;12.612;2023-03-18T03:39:10;99430.47;;;9.79;42.75
60061;BME280;45933;51.336;12.612;2023-03-18T03:41:36;99433.06;;;9.80;42.73
60061;BME280;45933;51.336;12.612;2023-03-18T03:44:02;99421.72;;;9.84;42.33
60061;BME280;45933;51.336;12.612;2023-03-18T03:46:27;99426.13;;;9.81;42.80
60061;BME280;45933;51.336;12.612;2023-03-18T03:48:53;99427.03;;;9.75;42.57
60061;BME280;45933;51.336;12.612;2023-03-18T03:51:18;99431.38;;;9.78;42.86
60061;BME280;45933;51.336;12.612;2023-03-18T03:53:44;99427.03;;;9.75;42.94
60061;BME280;45933;51.336;12.612;2023-03-18T03:56:10;99432.25;;;9.75;43.07
60061;BME280;45933;51.336;12.612;2023-03-18T03:58:36;99440.91;;;9.77;42.82
60061;BME280;45933;51.336;12.612;2023-03-18T04:01:01;99440.88;;;9.79;42.50
60061;BME280;45933;51.336;12.612;2023-03-18T04:03:29;99442.59;;;9.81;42.60
60061;BME280;45933;51.336;12.612;2023-03-18T04:05:54;99444.41;;;9.75;43.22
60061;BME280;45933;51.336;12.612;2023-03-18T04:08:20;99445.28;;;9.74;43.07
60061;BME280;45933;51.336;12.612;2023-03-18T04:10:46;99447.94;;;9.69;43.32
60061;BME280;45933;51.336;12.612;2023-03-18T04:13:11;99447.03;;;9.73;42.72
60061;BME280;45933;51.336;12.612;2023-03-18T04:15:37;99445.25;;;9.75;43.12
60061;BME280;45933;51.336;12.612;2023-03-18T04:18:02;99440.13;;;9.71;43.48
60061;BME280;45933;51.336;12.612;2023-03-18T04:20:35;99443.59;;;9.71;43.50
60061;BME280;45933;51.336;12.612;2023-03-18T04:23:02;99448.06;;;9.60;43.67
60061;BME280;45933;51.336;12.612;2023-03-18T04:25:28;99448.88;;;9.65;43.58
60061;BME280;45933;51.336;12.612;2023-03-18T04:27:53;99447.19;;;9.59;43.68
60061;BME280;45933;51.336;12.612;2023-03-18T04:30:19;99447.09;;;9.68;43.21
60061;BME280;45933;51.336;12.612;2023-03-18T04:32:45;99446.19;;;9.71;43.09
60061;BME280;45933;51.336;12.612;2023-03-18T04:35:10;99447.94;;;9.71;43.08
60061;BME280;45933;51.336;12.612;2023-03-18T04:37:36;99446.19;;;9.71;43.12
60061;BME280;45933;51.336;12.612;2023-03-18T04:40:02;99451.41;;;9.71;43.71
60061;BME280;45933;51.336;12.612;2023-03-18T04:42:29;99451.47;;;9.65;43.70
60061;BME280;45933;51.336;12.612;2023-03-18T04:44:54;99448.09;;;9.57;44.09
60061;BME280;45933;51.336;12.612;2023-03-18T04:47:20;99449.72;;;9.64;43.70
60061;BME280;45933;51.336;12.612;2023-03-18T04:49:46;99448.81;;;9.68;43.71
60061;BME280;45933;51.336;12.612;2023-03-18T04:52:12;99453.22;;;9.63;43.84
60061;BME280;45933;51.336;12.612;2023-03-18T04:54:37;99447.16;;;9.62;44.07
60061;BME280;45933;51.336;12.612;2023-03-18T04:57:03;99454.09;;;9.62;43.99
60061;BME280;45933;51.336;12.612;2023-03-18T04:59:31;99448.81;;;9.68;43.38
60061;BME280;45933;51.336;12.612;2023-03-18T05:01:56;99450.66;;;9.58;44.34
60061;BME280;45933;51.336;12.612;2023-03-18T05:04:21;99461.00;;;9.64;44.00
60061;BME280;45933;51.336;12.612;2023-03-18T05:06:48;99456.69;;;9.63;43.78
60061;BME280;45933;51.336;12.612;2023-03-18T05:09:13;99456.69;;;9.63;43.69
60061;BME280;45933;51.336;12.612;2023-03-18T05:11:39;99449.88;;;9.53;44.17
60061;BME280;45933;51.336;12.612;2023-03-18T05:14:04;99458.53;;;9.55;44.61
60061;BME280;45933;51.336;12.612;2023-03-18T05:16:29;99457.63;;;9.58;44.44
60061;BME280;45933;51.336;12.612;2023-03-18T05:18:55;99462.84;;;9.56;44.35
60061;BME280;45933;51.336;12.612;2023-03-18T05:21:20;99461.88;;;9.63;43.96
60061;BME280;45933;51.336;12.612;2023-03-18T05:23:46;99456.75;;;9.57;44.39
60061;BME280;45933;51.336;12.612;2023-03-18T05:26:11;99465.41;;;9.61;43.95
60061;BME280;45933;51.336;12.612;2023-03-18T05:28:37;99464.56;;;9.57;44.27
60061;BME280;45933;51.336;12.612;2023-03-18T05:31:03;99469.00;;;9.51;44.76
60061;BME280;45933;51.336;12.612;2023-03-18T05:33:29;99474.25;;;9.43;45.28
60061;BME280;45933;51.336;12.612;2023-03-18T05:35:54;99475.94;;;9.50;44.70
60061;BME280;45933;51.336;12.612;2023-03-18T05:38:20;99474.97;;;9.57;44.16
60061;BME280;45933;51.336;12.612;2023-03-18T05:40:46;99472.41;;;9.53;44.71
60061;BME280;45933;51.336;12.612;2023-03-18T05:43:11;99473.19;;;9.62;44.59
60061;BME280;45933;51.336;12.612;2023-03-18T05:45:37;99473.22;;;9.58;44.93
60061;BME280;45933;51.336;12.612;2023-03-18T05:48:03;99464.50;;;9.65;44.22
60061;BME280;45933;51.336;12.612;2023-03-18T05:50:34;99468.88;;;9.61;44.64
60061;BME280;45933;51.336;12.612;2023-03-18T05:53:01;99468.84;;;9.63;44.78
60061;BME280;45933;51.336;12.612;2023-03-18T05:55:27;99471.47;;;9.61;45.10
60061;BME280;45933;51.336;12.612;2023-03-18T05:57:54;99467.09;;;9.65;44.87
60061;BME280;45933;51.336;12.612;2023-03-18T06:00:19;99470.44;;;9.75;44.69
60061;BME280;45933;51.336;12.612;2023-03-18T06:02:45;99466.97;;;9.76;44.82
60061;BME280;45933;51.336;12.612;2023-03-18T06:05:12;99465.16;;;9.79;44.91
60061;BME280;45933;51.336;12.612;2023-03-18T06:07:37;99462.69;;;9.68;45.32
60061;BME280;45933;51.336;12.612;2023-03-18T06:10:03;99469.47;;;9.83;44.80
60061;BME280;45933;51.336;12.612;2023-03-18T06:12:29;99459.94;;;9.82;44.59
60061;BME280;45933;51.336;12.612;2023-03-18T06:14:54;99463.44;;;9.80;45.28
60061;BME280;45933;51.336;12.612;2023-03-18T06:17:20;99461.63;;;9.86;45.30
60061;BME280;45933;51.336;12.612;2023-03-18T06:19:46;99472.97;;;9.82;45.34
60061;BME280;45933;51.336;12.612;2023-03-18T06:22:13;99472.94;;;9.84;45.13
60061;BME280;45933;51.336;12.612;2023-03-18T06:24:39;99478.06;;;9.90;45.25
60061;BME280;45933;51.336;12.612;2023-03-18T06:27:05;99473.72;;;9.92;45.03
60061;BME280;45933;51.336;12.612;2023-03-18T06:29:30;99478.91;;;9.92;45.10
60061;BME280;45933;51.336;12.612;2023-03-18T06:31:56;99478.81;;;10.00;45.12
60061;BME280;45933;51.336;12.612;2023-03-18T06:34:21;99474.38;;;10.06;44.92
60061;BME280;45933;51.336;12.612;2023-03-18T06:36:46;99478.69;;;10.09;45.05
60061;BME280;45933;51.336;12.612;2023-03-18T06:39:11;99478.66;;;10.10;45.12
60061;BME280;45933;51.336;12.612;2023-03-18T06:41:38;99475.97;;;10.18;44.74
60061;BME280;45933;51.336;12.612;2023-03-18T06:44:04;99475.22;;;10.07;44.96
60061;BME280;45933;51.336;12.612;2023-03-18T06:46:29;99482.88;;;10.24;44.69
60061;BME280;45933;51.336;12.612;2023-03-18T06:48:54;99483.75;;;10.19;45.02
60061;BME280;45933;51.336;12.612;2023-03-18T06:51:20;99486.22;;;10.32;44.41
60061;BME280;45933;51.336;12.612;2023-03-18T06:53:45;99493.09;;;10.36;44.44
60061;BME280;45933;51.336;12.612;2023-03-18T06:56:11;99502.75;;;10.29;44.65
60061;BME280;45933;51.336;12.612;2023-03-18T06:58:39;99500.00;;;10.40;44.22
60061;BME280;45933;51.336;12.612;2023-03-18T07:01:05;99486.88;;;10.46;44.29
60061;BME280;45933;51.336;12.612;2023-03-18T07:03:30;99499.97;;;10.41;44.68
60061;BME280;45933;51.336;12.612;2023-03-18T07:05:56;99498.13;;;10.48;44.13
60061;BME280;45933;51.336;12.612;2023-03-18T07:08:22;99511.16;;;10.48;44.67
60061;BME280;45933;51.336;12.612;2023-03-18T07:10:50;99508.41;;;10.59;43.96
60061;BME280;45933;51.336;12.612;2023-03-18T07:13:16;99510.06;;;10.66;44.20
60061;BME280;45933;51.336;12.612;2023-03-18T07:15:42;99510.06;;;10.66;44.11
60061;BME280;45933;51.336;12.612;2023-03-18T07:18:07;99515.09;;;10.75;43.80
60061;BME280;45933;51.336;12.612;2023-03-18T07:20:33;99522.69;;;10.90;43.43
60061;BME280;45933;51.336;12.612;2023-03-18T07:23:00;99516.44;;;11.00;43.79
60061;BME280;45933;51.336;12.612;2023-03-18T07:25:27;99518.06;;;11.09;43.29
60061;BME280;45933;51.336;12.612;2023-03-18T07:27:54;99522.34;;;11.13;43.75
60061;BME280;45933;51.336;12.612;2023-03-18T07:30:19;99527.47;;;11.18;43.17
60061;BME280;45933;51.336;12.612;2023-03-18T07:32:45;99531.59;;;11.31;43.16
60061;BME280;45933;51.336;12.612;2023-03-18T07:35:11;99522.84;;;11.34;42.94
60061;BME280;45933;51.336;12.612;2023-03-18T07:37:39;99539.19;;;11.45;42.75
60061;BME280;45933;51.336;12.612;2023-03-18T07:40:05;99526.69;;;11.62;42.49
60061;BME280;45933;51.336;12.612;2023-03-18T07:42:30;99523.97;;;11.67;42.70
60061;BME280;45933;51.336;12.612;2023-03-18T07:44:56;99521.03;;;11.85;42.12
60061;BME280;45933;51.336;12.612;2023-03-18T07:47:22;99521.22;;;11.76;42.05
60061;BME280;45933;51.336;12.612;2023-03-18T07:49:49;99527.88;;;11.91;42.41
60061;BME280;45933;51.336;12.612;2023-03-18T07:52:16;99526.00;;;11.99;42.15
60061;BME280;45933;51.336;12.612;2023-03-18T07:54:42;99530.38;;;11.98;42.12
60061;BME280;45933;51.336;12.612;2023-03-18T07:57:08;99529.19;;;12.13;41.93
60061;BME280;45933;51.336;12.612;2023-03-18T07:59:34;99532.44;;;12.23;41.77
60061;BME280;45933;51.336;12.612;2023-03-18T08:01:59;99541.91;;;12.30;41.71
60061;BME280;45933;51.336;12.612;2023-03-18T08:04:25;99527.88;;;12.34;41.85
60061;BME280;45933;51.336;12.612;2023-03-18T08:06:50;99536.59;;;12.33;41.63
60061;BME280;45933;51.336;12.612;2023-03-18T08:09:16;99549.38;;;12.47;41.81
60061;BME280;45933;51.336;12.612;2023-03-18T08:11:41;99548.44;;;12.51;41.56
60061;BME280;45933;51.336;12.612;2023-03-18T08:14:07;99552.69;;;12.55;41.53
60061;BME280;45933;51.336;12.612;2023-03-18T08:16:32;99555.31;;;12.53;41.49
60061;BME280;45933;51.336;12.612;2023-03-18T08:18:57;99548.25;;;12.59;41.57
60061;BME280;45933;51.336;12.612;2023-03-18T08:21:23;99557.66;;;12.67;41.55
60061;BME280;45933;51.336;12.612;2023-03-18T08:23:48;99548.19;;;12.62;41.71
60061;BME280;45933;51.336;12.612;2023-03-18T08:26:14;99550.38;;;12.80;41.63
60061;BME280;45933;51.336;12.612;2023-03-18T08:28:39;99553.72;;;12.87;41.72
60061;BME280;45933;51.336;12.612;2023-03-18T08:31:05;99565.91;;;12.88;41.63
60061;BME280;45933;51.336;12.612;2023-03-18T08:33:31;99559.47;;;13.02;41.63
60061;BME280;45933;51.336;12.612;2023-03-18T08:35:57;99562.03;;;13.04;41.69
60061;BME280;45933;51.336;12.612;2023-03-18T08:38:23;99567.06;;;13.12;41.50
60061;BME280;45933;51.336;12.612;2023-03-18T08:40:49;99564.28;;;13.18;41.19
60061;BME280;45933;51.336;12.612;2023-03-18T08:43:15;99569.50;;;13.19;41.26
60061;BME280;45933;51.336;12.612;2023-03-18T08:45:40;99573.69;;;13.28;41.42
60061;BME280;45933;51.336;12.612;2023-03-18T08:48:06;99571.91;;;13.30;41.63
60061;BME280;45933;51.336;12.612;2023-03-18T08:50:33;99563.09;;;13.32;41.42
60061;BME280;45933;51.336;12.612;2023-03-18T08:53:00;99562.91;;;13.40;41.09
60061;BME280;45933;51.336;12.612;2023-03-18T08:55:30;99572.47;;;13.41;41.74
60061;BME280;45933;51.336;12.612;2023-03-18T08:57:56;99567.16;;;13.44;41.39
60061;BME280;45933;51.336;12.612;2023-03-18T09:00:39;99575.53;;;13.58;41.40
60061;BME280;45933;51.336;12.612;2023-03-18T09:03:06;99573.00;;;13.55;41.56
60061;BME280;45933;51.336;12.612;2023-03-18T09:05:31;99578.06;;;13.62;41.50
60061;BME280;45933;51.336;12.612;2023-03-18T09:07:57;99571.94;;;13.63;41.40
60061;BME280;45933;51.336;12.612;2023-03-18T09:10:23;99577.97;;;13.66;41.62
60061;BME280;45933;51.336;12.612;2023-03-18T09:12:49;99582.25;;;13.69;41.69
60061;BME280;45933;51.336;12.612;2023-03-18T09:15:15;99585.66;;;13.72;41.69
60061;BME280;45933;51.336;12.612;2023-03-18T09:17:41;99585.50;;;13.78;41.84
60061;BME280;45933;51.336;12.612;2023-03-18T09:20:11;99580.19;;;13.81;41.78
60061;BME280;45933;51.336;12.612;2023-03-18T09:22:39;99580.19;;;13.81;41.99
60061;BME280;45933;51.336;12.612;2023-03-18T09:25:05;99586.34;;;13.79;42.21
60061;BME280;45933;51.336;12.612;2023-03-18T09:27:30;99579.78;;;13.95;41.87
60061;BME280;45933;51.336;12.612;2023-03-18T09:29:56;99583.09;;;14.02;41.64
60061;BME280;45933;51.336;12.612;2023-03-18T09:32:21;99581.94;;;14.12;42.24
60061;BME280;45933;51.336;12.612;2023-03-18T09:34:47;99590.59;;;14.16;42.02
60061;BME280;45933;51.336;12.612;2023-03-18T09:37:12;99591.31;;;14.21;41.81
60061;BME280;45933;51.336;12.612;2023-03-18T09:39:39;99576.78;;;14.40;41.83
60061;BME280;45933;51.336;12.612;2023-03-18T09:45:21;99567.22;;;14.69;41.50
60061;BME280;45933;51.336;12.612;2023-03-18T09:53:11;99576.19;;;14.89;41.16
60061;BME280;45933;51.336;12.612;2023-03-18T09:55:42;99585.63;;;14.95;41.63
60061;BME280;45933;51.336;12.612;2023-03-18T09:58:19;99592.50;;;14.99;41.27
60061;BME280;45933;51.336;12.612;2023-03-18T10:00:46;99583.63;;;15.03;41.29
60061;BME280;45933;51.336;12.612;2023-03-18T10:03:26;99588.53;;;15.14;41.39
60061;BME280;45933;51.336;12.612;2023-03-18T10:06:02;99589.34;;;15.16;42.46
60061;BME280;45933;51.336;12.612;2023-03-18T10:08:46;99591.69;;;15.25;41.18
60061;BME280;45933;51.336;12.612;2023-03-18T10:11:41;99586.88;;;15.38;41.27
60061;BME280;45933;51.336;12.612;2023-03-18T10:14:16;99589.44;;;15.39;41.13
60061;BME280;45933;51.336;12.612;2023-03-18T10:17:02;99590.59;;;15.57;40.82
60061;BME280;45933;51.336;12.612;2023-03-18T10:19:31;99584.31;;;15.63;40.61
60061;BME280;45933;51.336;12.612;2023-03-18T10:22:11;99582.94;;;15.78;40.67
60061;BME280;45933;51.336;12.612;2023-03-18T10:24:49;99585.19;;;15.88;40.31
60061;BME280;45933;51.336;12.612;2023-03-18T10:27:39;99584.75;;;16.01;40.04
60061;BME280;45933;51.336;12.612;2023-03-18T10:30:25;99587.97;;;16.09;40.07
60061;BME280;45933;51.336;12.612;2023-03-18T10:36:02;99589.00;;;16.05;40.04
60061;BME280;45933;51.336;12.612;2023-03-18T10:38:33;99591.09;;;16.18;39.77
60061;BME280;45933;51.336;12.612;2023-03-18T10:41:12;99587.44;;;16.23;39.96
60061;BME280;45933;51.336;12.612;2023-03-18T10:43:38;99582.94;;;16.26;40.67
60061;BME280;45933;51.336;12.612;2023-03-18T10:46:05;99586.50;;;16.25;40.55
60061;BME280;45933;51.336;12.612;2023-03-18T10:48:38;99589.66;;;16.35;40.35
60061;BME280;45933;51.336;12.612;2023-03-18T10:51:08;99588.19;;;16.50;41.01
60061;BME280;45933;51.336;12.612;2023-03-18T10:53:42;99590.22;;;16.66;40.95
60061;BME280;45933;51.336;12.612;2023-03-18T10:56:12;99585.13;;;16.85;40.47
60061;BME280;45933;51.336;12.612;2023-03-18T10:58:39;99582.06;;;16.96;39.72
60061;BME280;45933;51.336;12.612;2023-03-18T11:01:13;99587.81;;;17.28;39.82
60061;BME280;45933;51.336;12.612;2023-03-18T11:03:51;99583.25;;;17.53;39.77
60061;BME280;45933;51.336;12.612;2023-03-18T11:06:46;99587.28;;;17.82;40.06
60061;BME280;45933;51.336;12.612;2023-03-18T11:09:19;99584.72;;;18.01;39.28
60061;BME280;45933;51.336;12.612;2023-03-18T11:11:47;99578.66;;;18.19;38.79
60061;BME280;45933;51.336;12.612;2023-03-18T11:14:20;99578.38;;;18.44;38.25
60061;BME280;45933;51.336;12.612;2023-03-18T11:16:58;99582.44;;;18.72;38.17
60061;BME280;45933;51.336;12.612;2023-03-18T11:19:45;99580.25;;;18.99;37.67
60061;BME280;45933;51.336;12.612;2023-03-18T11:22:18;99580.59;;;19.10;37.23
60061;BME280;45933;51.336;12.612;2023-03-18T11:24:45;99580.91;;;19.21;36.59
60061;BME280;45933;51.336;12.612;2023-03-18T11:29:48;99577.53;;;19.54;36.97
60061;BME280;45933;51.336;12.612;2023-03-18T11:32:26;99570.78;;;19.66;37.02
60061;BME280;45933;51.336;12.612;2023-03-18T11:35:06;99574.75;;;19.74;36.41
60061;BME280;45933;51.336;12.612;2023-03-18T11:37:39;99581.28;;;19.84;37.00
60061;BME280;45933;51.336;12.612;2023-03-18T11:40:22;99575.16;;;19.84;36.54
60061;BME280;45933;51.336;12.612;2023-03-18T11:42:54;99576.38;;;19.94;36.46
60061;BME280;45933;51.336;12.612;2023-03-18T11:48:05;99572.03;;;19.76;36.00
60061;BME280;45933;51.336;12.612;2023-03-18T11:50:41;99572.03;;;19.93;35.86
60061;BME280;45933;51.336;12.612;2023-03-18T11:53:15;99571.25;;;19.91;36.12
60061;BME280;45933;51.336;12.612;2023-03-18T11:55:53;99564.97;;;19.94;36.34
60061;BME280;45933;51.336;12.612;2023-03-18T11:58:43;99565.56;;;19.99;36.66
60061;BME280;45933;51.336;12.612;2023-03-18T12:04:18;99559.50;;;20.46;36.62
60061;BME280;45933;51.336;12.612;2023-03-18T12:07:21;99553.59;;;20.89;36.71
60061;BME280;45933;51.336;12.612;2023-03-18T12:10:18;99563.03;;;21.41;36.58
60061;BME280;45933;51.336;12.612;2023-03-18T12:13:08;99561.97;;;21.74;33.54
60061;BME280;45933;51.336;12.612;2023-03-18T12:21:17;99549.41;;;22.63;33.70
60061;BME280;45933;51.336;12.612;2023-03-18T12:23:58;99551.53;;;22.99;33.88
60061;BME280;45933;51.336;12.612;2023-03-18T12:26:39;99553.63;;;23.21;33.38
60061;BME280;45933;51.336;12.612;2023-03-18T12:30:01;99548.72;;;23.55;32.75
60061;BME280;45933;51.336;12.612;2023-03-18T12:32:28;99560.19;;;23.95;32.21
60061;BME280;45933;51.336;12.612;2023-03-18T12:35:27;99555.19;;;24.16;31.31
60061;BME280;45933;51.336;12.612;2023-03-18T12:38:09;99551.97;;;24.49;30.81
60061;BME280;45933;51.336;12.612;2023-03-18T12:40:53;99545.94;;;24.71;30.04
60061;BME280;45933;51.336;12.612;2023-03-18T12:43:37;99547.16;;;24.91;29.81
60061;BME280;45933;51.336;12.612;2023-03-18T12:46:20;99546.47;;;25.13;29.04
60061;BME280;45933;51.336;12.612;2023-03-18T12:48:54;99547.63;;;25.33;29.69
60061;BME280;45933;51.336;12.612;2023-03-18T12:51:25;99548.25;;;25.36;28.94
60061;BME280;45933;51.336;12.612;2023-03-18T12:53:54;99544.88;;;25.45;28.09
60061;BME280;45933;51.336;12.612;2023-03-18T12:56:23;99548.56;;;25.55;28.81
60061;BME280;45933;51.336;12.612;2023-03-18T12:58:53;99537.44;;;25.73;28.33
60061;BME280;45933;51.336;12.612;2023-03-18T13:01:29;99544.06;;;25.91;27.91
60061;BME280;45933;51.336;12.612;2023-03-18T13:04:11;99540.22;;;26.18;28.67
60061;BME280;45933;51.336;12.612;2023-03-18T13:06:40;99532.19;;;26.29;27.42
60061;BME280;45933;51.336;12.612;2023-03-18T13:09:35;99534.16;;;26.49;27.98
60061;BME280;45933;51.336;12.612;2023-03-18T13:12:23;99526.00;;;26.62;27.42
60061;BME280;45933;51.336;12.612;2023-03-18T13:15:16;99531.31;;;26.84;27.42
60061;BME280;45933;51.336;12.612;2023-03-18T13:17:46;99529.59;;;26.83;26.57
60061;BME280;45933;51.336;12.612;2023-03-18T13:20:30;99527.53;;;26.87;27.08
60061;BME280;45933;51.336;12.612;2023-03-18T13:23:16;99532.47;;;27.03;26.60
60061;BME280;45933;51.336;12.612;2023-03-18T13:26:20;99528.94;;;27.02;26.95
60061;BME280;45933;51.336;12.612;2023-03-18T13:28:54;99525.31;;;26.92;27.17
60061;BME280;45933;51.336;12.612;2023-03-18T13:34:39;99522.84;;;26.68;27.20
60061;BME280;45933;51.336;12.612;2023-03-18T13:40:25;99523.56;;;26.70;27.18